Time;durP1;ratioP1;P1;durP2;ratioP2;P2;SDS_P1;SDS_P2;PMS_P1;PMS_P2;Temp;Humidity;BMP_temperature;BMP_pressure;BME280_temperature;BME280_humidity;BME280_pressure;Samples;Min_cycle;Max_cycle;Signal;HPM_P1;HPM_P2
2022/04/27 00:00:36;;;;;;;18.17;15.37;;;12.00;99.90;;;;;;5028773;28;20773;-76
2022/04/27 00:03:03;;;;;;;19.77;15.60;;;11.80;99.90;;;;;;5030128;28;20470;-77
2022/04/27 00:05:30;;;;;;;17.40;14.60;;;11.50;99.90;;;;;;5037430;28;20437;-76
2022/04/27 00:07:56;;;;;;;17.80;15.27;;;11.40;99.90;;;;;;5035390;28;20442;-77
2022/04/27 00:10:22;;;;;;;19.87;15.70;;;11.70;99.90;;;;;;5039009;28;20449;-77
2022/04/27 00:12:48;;;;;;;17.27;15.07;;;11.70;99.90;;;;;;5040517;28;20949;-77
2022/04/27 00:15:15;;;;;;;17.40;14.57;;;11.70;99.90;;;;;;5030843;28;20209;-76
2022/04/27 00:17:41;;;;;;;17.83;15.30;;;11.80;99.90;;;;;;5029262;28;20190;-76
2022/04/27 00:20:07;;;;;;;19.80;16.63;;;11.90;99.90;;;;;;5032263;28;21022;-76
2022/04/27 00:22:34;;;;;;;17.77;14.77;;;12.10;99.90;;;;;;5034041;28;20463;-76
2022/04/27 00:25:00;;;;;;;19.10;15.87;;;11.70;99.90;;;;;;5031323;28;20792;-76
2022/04/27 00:27:30;;;;;;;19.50;16.37;;;11.60;99.90;;;;;;5033280;28;20995;-76
2022/04/27 00:29:58;;;;;;;17.67;14.60;;;11.80;99.90;;;;;;5030544;28;20438;-75
2022/04/27 00:32:24;;;;;;;20.37;16.00;;;11.90;99.90;;;;;;5031505;28;20458;-75
2022/04/27 00:34:49;;;;;;;17.60;14.93;;;11.90;99.90;;;;;;5030910;28;20438;-75
2022/04/27 00:37:15;;;;;;;18.10;15.50;;;11.80;99.90;;;;;;5030941;28;20438;-74
2022/04/27 00:39:41;;;;;;;18.50;14.00;;;12.00;99.90;;;;;;5031179;28;20260;-75
2022/04/27 00:42:13;;;;;;;19.20;14.37;;;12.00;99.90;;;;;;5028153;28;20211;-76
2022/04/27 00:44:38;;;;;;;18.67;15.50;;;11.90;99.90;;;;;;5033132;28;20184;-76
2022/04/27 00:47:04;;;;;;;17.10;14.80;;;11.80;99.90;;;;;;5032159;28;20539;-76
2022/04/27 00:49:30;;;;;;;16.97;14.17;;;11.70;99.90;;;;;;5031465;28;20180;-76
2022/04/27 00:51:56;;;;;;;17.13;14.13;;;11.90;99.90;;;;;;5032044;28;20499;-76
2022/04/27 00:54:22;;;;;;;19.60;14.67;;;11.90;99.90;;;;;;5030781;28;20192;-75
2022/04/27 00:56:51;;;;;;;18.43;14.87;;;11.70;99.90;;;;;;5029877;28;20183;-76
2022/04/27 00:59:17;;;;;;;17.07;13.37;;;11.70;99.90;;;;;;5024485;28;20450;-76
2022/04/27 01:01:43;;;;;;;18.00;14.60;;;11.60;99.90;;;;;;5029842;28;20474;-75
2022/04/27 01:04:09;;;;;;;14.97;12.40;;;11.60;99.90;;;;;;5029232;28;20909;-75
2022/04/27 01:06:36;;;;;;;17.97;14.50;;;11.60;99.90;;;;;;5028007;28;20439;-76
2022/04/27 01:09:06;;;;;;;16.80;14.63;;;11.60;99.90;;;;;;5025842;28;20279;-76
2022/04/27 01:11:32;;;;;;;21.17;15.37;;;11.50;99.90;;;;;;5027181;28;20597;-75
2022/04/27 01:13:58;;;;;;;18.30;16.30;;;11.60;99.90;;;;;;5030382;28;20484;-76
2022/04/27 01:16:24;;;;;;;17.40;15.50;;;11.60;99.90;;;;;;5030550;28;20941;-76
2022/04/27 01:18:50;;;;;;;18.10;15.57;;;11.50;99.90;;;;;;5027739;28;20192;-75
2022/04/27 01:21:17;;;;;;;17.87;14.87;;;11.60;99.90;;;;;;5027902;28;20176;-76
2022/04/27 01:23:42;;;;;;;20.53;16.40;;;11.60;99.90;;;;;;5028675;28;20431;-75
2022/04/27 01:26:08;;;;;;;22.40;16.93;;;11.70;99.90;;;;;;5029303;28;20438;-74
2022/04/27 01:28:36;;;;;;;19.87;16.17;;;11.70;99.90;;;;;;5044441;28;20195;-76
2022/04/27 01:31:10;;;;;;;19.30;16.13;;;11.80;99.90;;;;;;5027073;28;20271;-76
2022/04/27 01:33:35;;;;;;;22.23;17.90;;;11.90;99.90;;;;;;5029443;28;20454;-75
2022/04/27 01:36:09;;;;;;;19.23;16.40;;;12.00;99.90;;;;;;5027520;28;20461;-75
2022/04/27 01:38:34;;;;;;;20.83;17.57;;;12.00;99.90;;;;;;5049271;28;20195;-75
2022/04/27 01:41:01;;;;;;;21.20;18.90;;;11.70;99.90;;;;;;5047668;28;20431;-75
2022/04/27 01:43:26;;;;;;;20.80;18.00;;;11.80;99.90;;;;;;5032609;28;20223;-75
2022/04/27 01:45:52;;;;;;;19.60;16.43;;;11.90;99.90;;;;;;5031815;28;20430;-75
2022/04/27 01:48:18;;;;;;;19.23;16.23;;;11.90;99.90;;;;;;5036518;28;20204;-75
2022/04/27 01:50:44;;;;;;;22.77;18.17;;;11.80;99.90;;;;;;5033494;28;20546;-75
2022/04/27 01:55:54;;;;;;;19.43;16.43;;;11.90;99.90;;;;;;5033051;28;20441;-75
2022/04/27 01:58:20;;;;;;;21.03;17.30;;;11.90;99.90;;;;;;5027541;28;20863;-75
2022/04/27 02:00:47;;;;;;;20.67;18.47;;;12.00;99.90;;;;;;5031528;28;20207;-74
2022/04/27 02:03:14;;;;;;;20.33;16.90;;;12.00;99.90;;;;;;5033386;28;20222;-75
2022/04/27 02:05:40;;;;;;;21.60;18.40;;;12.10;99.90;;;;;;5036608;28;20442;-76
2022/04/27 02:08:06;;;;;;;20.40;17.93;;;12.20;99.90;;;;;;5028396;28;20449;-75
2022/04/27 02:10:31;;;;;;;23.70;17.50;;;11.90;99.90;;;;;;5032312;28;20617;-75
2022/04/27 02:12:57;;;;;;;22.40;17.90;;;11.90;99.90;;;;;;5033038;28;20208;-75
2022/04/27 02:15:23;;;;;;;19.33;17.13;;;12.00;99.90;;;;;;5034442;28;20245;-75
2022/04/27 02:17:50;;;;;;;22.63;18.73;;;11.90;99.90;;;;;;5047605;28;20582;-75
2022/04/27 02:20:22;;;;;;;22.13;18.77;;;11.90;99.90;;;;;;5029619;28;20645;-76
2022/04/27 02:22:47;;;;;;;20.10;17.60;;;12.00;99.90;;;;;;5030491;28;20503;-76
2022/04/27 02:25:13;;;;;;;22.90;18.63;;;12.00;99.90;;;;;;5031979;28;20475;-76
2022/04/27 02:27:39;;;;;;;19.67;16.97;;;12.00;99.90;;;;;;5032522;28;20185;-76
2022/04/27 02:30:05;;;;;;;21.30;17.27;;;12.00;99.90;;;;;;5029847;28;20211;-76
2022/04/27 02:32:30;;;;;;;24.53;19.13;;;12.00;99.90;;;;;;5035220;28;20945;-76
2022/04/27 02:34:56;;;;;;;20.07;17.30;;;11.90;99.90;;;;;;5031311;28;20454;-76
2022/04/27 02:37:22;;;;;;;23.63;18.87;;;11.90;99.90;;;;;;5031047;28;20683;-76
2022/04/27 02:39:47;;;;;;;19.80;17.53;;;12.00;99.90;;;;;;5027424;28;20246;-76
2022/04/27 02:42:13;;;;;;;23.57;19.27;;;12.10;99.90;;;;;;5031786;28;20754;-76
2022/04/27 02:44:39;;;;;;;21.17;17.53;;;12.00;99.90;;;;;;5027068;28;20176;-75
2022/04/27 02:47:05;;;;;;;22.40;19.07;;;12.10;99.90;;;;;;5028438;28;20921;-75
2022/04/27 02:52:14;;;;;;;22.30;18.47;;;12.10;99.90;;;;;;5030630;28;20470;-74
2022/04/27 02:54:40;;;;;;;23.13;18.10;;;11.90;99.90;;;;;;5029890;28;20554;-74
2022/04/27 02:57:06;;;;;;;25.40;20.10;;;11.90;99.90;;;;;;5032740;28;20234;-75
2022/04/27 02:59:33;;;;;;;22.47;18.07;;;11.90;99.90;;;;;;5026609;28;20199;-74
2022/04/27 03:02:00;;;;;;;22.50;19.00;;;11.90;99.90;;;;;;5026382;28;20503;-74
2022/04/27 03:04:26;;;;;;;22.43;18.50;;;12.10;99.90;;;;;;5035979;28;20515;-74
2022/04/27 03:06:51;;;;;;;22.33;19.00;;;12.10;99.90;;;;;;5026294;28;20449;-75
2022/04/27 03:09:17;;;;;;;21.60;17.43;;;12.00;99.90;;;;;;5029599;28;20434;-75
2022/04/27 03:11:43;;;;;;;23.67;18.40;;;11.80;99.90;;;;;;5029737;28;20200;-75
2022/04/27 03:14:08;;;;;;;22.77;19.30;;;11.90;99.90;;;;;;5031067;28;20443;-75
2022/04/27 03:16:34;;;;;;;22.70;18.20;;;11.80;99.90;;;;;;5031845;28;20180;-75
2022/04/27 03:19:00;;;;;;;27.77;18.80;;;11.90;99.90;;;;;;5029943;28;20184;-75
2022/04/27 03:21:28;;;;;;;24.63;19.40;;;11.80;99.90;;;;;;5035297;28;20640;-76
2022/04/27 03:23:53;;;;;;;24.73;19.50;;;11.90;99.90;;;;;;5031630;28;20442;-75
2022/04/27 03:26:19;;;;;;;25.70;18.00;;;11.90;99.90;;;;;;5031404;28;20438;-75
2022/04/27 03:28:45;;;;;;;22.60;18.40;;;11.90;99.90;;;;;;5032060;28;20211;-75
2022/04/27 03:31:10;;;;;;;21.07;18.07;;;11.90;99.90;;;;;;5030133;28;20909;-75
2022/04/27 03:33:36;;;;;;;24.07;17.93;;;11.90;99.90;;;;;;5031523;28;20212;-75
2022/04/27 03:36:01;;;;;;;24.03;18.90;;;11.80;99.90;;;;;;5033375;28;20184;-75
2022/04/27 03:38:27;;;;;;;27.00;18.60;;;11.90;99.90;;;;;;5032061;28;20192;-75
2022/04/27 03:40:52;;;;;;;26.03;20.13;;;11.80;99.90;;;;;;5031148;28;20199;-75
2022/04/27 03:43:19;;;;;;;25.60;19.47;;;11.80;99.90;;;;;;5034644;28;20231;-75
2022/04/27 03:45:44;;;;;;;26.23;20.50;;;11.80;99.90;;;;;;5028724;28;20199;-75
2022/04/27 03:48:10;;;;;;;24.20;19.00;;;11.90;99.90;;;;;;5030879;28;21183;-75
2022/04/27 03:50:36;;;;;;;24.87;18.93;;;11.90;99.90;;;;;;5028381;28;20258;-75
2022/04/27 03:53:01;;;;;;;25.80;20.33;;;11.70;99.90;;;;;;5032268;28;20249;-75
2022/04/27 03:55:28;;;;;;;23.67;19.03;;;11.70;99.90;;;;;;5032201;28;20271;-75
2022/04/27 03:57:54;;;;;;;30.30;21.30;;;11.50;99.90;;;;;;5031073;28;20855;-75
2022/04/27 04:00:20;;;;;;;26.23;19.47;;;11.60;99.90;;;;;;5026619;28;20463;-75
2022/04/27 04:02:46;;;;;;;28.77;19.43;;;11.60;99.90;;;;;;5029406;28;20534;-75
2022/04/27 04:05:11;;;;;;;27.40;22.33;;;11.50;99.90;;;;;;5031357;28;20442;-75
2022/04/27 04:07:37;;;;;;;26.60;21.70;;;11.60;99.90;;;;;;5028727;28;20184;-75
2022/04/27 04:10:03;;;;;;;28.67;21.87;;;11.70;99.90;;;;;;5028593;28;20644;-75
2022/04/27 04:12:29;;;;;;;30.87;22.13;;;11.90;99.90;;;;;;5028161;28;20223;-76
2022/04/27 04:14:54;;;;;;;26.40;18.93;;;11.90;99.90;;;;;;5027895;28;20450;-75
2022/04/27 04:17:20;;;;;;;28.83;20.17;;;12.00;99.90;;;;;;5024588;28;22545;-75
2022/04/27 04:19:46;;;;;;;30.47;22.43;;;11.90;99.90;;;;;;5032705;28;20195;-76
2022/04/27 04:22:13;;;;;;;27.13;20.27;;;11.90;99.90;;;;;;5031347;28;20717;-75
2022/04/27 04:24:38;;;;;;;29.07;21.23;;;12.00;99.90;;;;;;5032862;28;20238;-75
2022/04/27 04:29:48;;;;;;;27.73;18.87;;;11.90;99.90;;;;;;5030168;28;20283;-75
2022/04/27 04:32:13;;;;;;;29.00;20.90;;;11.90;99.90;;;;;;5030743;28;20608;-75
2022/04/27 04:34:39;;;;;;;25.93;18.90;;;11.90;99.90;;;;;;5030759;28;20253;-75
2022/04/27 04:37:05;;;;;;;28.27;21.17;;;11.90;99.90;;;;;;5049664;28;20636;-75
2022/04/27 04:39:31;;;;;;;32.17;23.27;;;11.70;99.90;;;;;;5035494;28;20202;-74
2022/04/27 04:41:56;;;;;;;27.53;20.57;;;11.90;99.90;;;;;;5033250;28;20474;-75
2022/04/27 04:44:22;;;;;;;27.90;21.07;;;11.90;99.90;;;;;;5035689;28;20560;-74
2022/04/27 04:46:48;;;;;;;26.57;19.67;;;11.90;99.90;;;;;;5030952;28;20207;-75
2022/04/27 04:49:13;;;;;;;29.20;21.33;;;11.80;99.90;;;;;;5033431;28;20215;-75
2022/04/27 04:51:39;;;;;;;28.00;20.63;;;11.90;99.90;;;;;;5033861;28;20450;-75
2022/04/27 04:54:04;;;;;;;28.60;21.00;;;11.90;99.90;;;;;;5032111;28;20176;-75
2022/04/27 04:56:30;;;;;;;27.97;19.37;;;12.00;99.90;;;;;;5035152;28;20181;-75
2022/04/27 04:58:56;;;;;;;24.77;19.90;;;12.10;99.90;;;;;;5034746;28;20202;-75
2022/04/27 05:01:22;;;;;;;25.57;19.23;;;12.00;99.90;;;;;;5033107;28;20196;-75
2022/04/27 05:03:47;;;;;;;29.90;20.30;;;12.10;99.90;;;;;;5035466;28;20191;-75
2022/04/27 05:06:14;;;;;;;26.87;19.83;;;12.10;99.90;;;;;;5029409;28;20194;-76
2022/04/27 05:08:39;;;;;;;26.40;18.90;;;12.10;99.90;;;;;;5030386;28;20524;-75
2022/04/27 05:11:05;;;;;;;29.10;19.47;;;12.20;99.90;;;;;;5029134;28;20437;-75
2022/04/27 05:13:30;;;;;;;25.70;20.37;;;12.10;99.90;;;;;;5035220;28;20901;-75
2022/04/27 05:15:56;;;;;;;29.23;19.53;;;12.20;99.90;;;;;;5034614;28;20275;-75
2022/04/27 05:18:22;;;;;;;24.23;19.53;;;12.10;99.90;;;;;;5031961;28;20942;-75
2022/04/27 05:20:48;;;;;;;24.67;19.60;;;12.00;99.90;;;;;;5038087;28;20438;-75
2022/04/27 05:23:13;;;;;;;25.43;20.10;;;12.10;99.90;;;;;;5032190;28;20212;-75
2022/04/27 05:25:40;;;;;;;23.10;18.40;;;12.10;99.90;;;;;;5034565;28;20184;-76
2022/04/27 05:28:06;;;;;;;29.00;20.20;;;12.00;99.90;;;;;;5040137;28;20657;-74
2022/04/27 05:33:23;;;;;;;25.77;19.40;;;12.10;99.90;;;;;;5034335;28;20474;-75
2022/04/27 05:35:49;;;;;;;21.97;17.33;;;12.10;99.90;;;;;;5033298;28;20431;-75
2022/04/27 05:38:14;;;;;;;27.30;19.43;;;12.20;99.90;;;;;;5033721;28;20449;-75
2022/04/27 05:40:43;;;;;;;22.70;17.40;;;12.00;99.90;;;;;;5035648;28;20460;-75
2022/04/27 05:43:10;;;;;;;26.57;18.87;;;12.00;99.90;;;;;;5033376;28;20250;-75
2022/04/27 05:45:36;;;;;;;23.73;17.57;;;11.90;99.90;;;;;;5034616;28;20471;-75
2022/04/27 05:48:02;;;;;;;20.87;16.90;;;11.90;99.90;;;;;;5038123;28;20480;-75
2022/04/27 05:50:27;;;;;;;27.50;19.10;;;12.10;99.90;;;;;;5033500;28;20434;-75
2022/04/27 05:52:59;;;;;;;24.50;18.80;;;12.00;99.90;;;;;;5031991;28;20254;-74
2022/04/27 05:55:25;;;;;;;23.87;17.33;;;11.90;99.90;;;;;;5030266;28;20185;-75
2022/04/27 05:57:52;;;;;;;24.67;18.00;;;12.00;99.90;;;;;;5030251;28;20442;-74
2022/04/27 06:00:19;;;;;;;22.17;17.17;;;12.10;99.90;;;;;;5029171;28;20450;-74
2022/04/27 06:02:46;;;;;;;23.07;17.90;;;12.30;99.90;;;;;;5031012;28;21046;-73
2022/04/27 06:05:11;;;;;;;25.90;19.03;;;12.40;99.90;;;;;;5033297;28;20442;-74
2022/04/27 06:07:37;;;;;;;22.47;17.87;;;12.40;99.90;;;;;;5030130;28;20435;-74
2022/04/27 06:10:07;;;;;;;25.40;18.73;;;12.30;99.90;;;;;;5033160;28;20176;-74
2022/04/27 06:12:36;;;;;;;23.00;17.50;;;12.40;99.90;;;;;;5024758;28;20207;-74
2022/04/27 06:15:10;;;;;;;26.57;19.47;;;12.40;99.90;;;;;;5023189;28;20806;-74
2022/04/27 06:17:35;;;;;;;28.00;19.60;;;12.40;99.90;;;;;;5026080;28;20540;-74
2022/04/27 06:20:01;;;;;;;27.63;17.73;;;12.50;99.90;;;;;;5028141;28;21566;-74
2022/04/27 06:22:27;;;;;;;25.50;18.63;;;12.40;99.90;;;;;;5033852;28;20298;-75
2022/04/27 06:24:52;;;;;;;25.13;17.63;;;12.50;99.90;;;;;;5036706;28;20580;-75
2022/04/27 06:27:18;;;;;;;24.03;18.53;;;12.60;99.90;;;;;;5032836;28;20249;-75
2022/04/27 06:29:47;;;;;;;25.10;18.20;;;12.60;99.90;;;;;;5028853;28;20214;-73
2022/04/27 06:32:12;;;;;;;26.97;18.73;;;12.70;99.90;;;;;;5036061;28;20200;-74
2022/04/27 06:34:38;;;;;;;23.33;18.43;;;12.80;99.90;;;;;;5039174;28;20436;-74
2022/04/27 06:37:04;;;;;;;21.23;16.17;;;13.00;99.90;;;;;;5035043;28;20188;-75
2022/04/27 06:39:29;;;;;;;22.80;16.30;;;13.10;99.90;;;;;;5037097;28;20184;-75
2022/04/27 06:41:55;;;;;;;22.17;17.73;;;13.20;99.90;;;;;;5037613;28;20689;-76
2022/04/27 06:44:21;;;;;;;22.53;18.13;;;13.10;99.90;;;;;;5038550;28;20194;-74
2022/04/27 06:46:46;;;;;;;20.67;16.13;;;13.30;99.90;;;;;;5037172;28;20845;-75
2022/04/27 06:49:12;;;;;;;22.27;17.40;;;13.30;99.90;;;;;;5036936;28;20175;-76
2022/04/27 06:51:37;;;;;;;20.83;16.13;;;13.40;99.90;;;;;;5036634;28;20259;-75
2022/04/27 06:54:04;;;;;;;23.30;17.67;;;13.50;99.90;;;;;;5043986;28;20201;-74
2022/04/27 06:56:29;;;;;;;21.57;18.13;;;13.40;99.90;;;;;;5032832;28;20576;-75
2022/04/27 06:58:55;;;;;;;25.47;18.17;;;13.40;99.90;;;;;;5032396;28;20431;-74
2022/04/27 07:01:21;;;;;;;21.07;17.90;;;13.40;99.90;;;;;;5031098;28;20195;-74
2022/04/27 07:03:48;;;;;;;23.23;17.43;;;13.40;99.90;;;;;;5028592;28;20877;-74
2022/04/27 07:06:13;;;;;;;24.77;19.70;;;13.20;99.90;;;;;;5034096;28;20586;-74
2022/04/27 07:08:39;;;;;;;21.90;16.20;;;13.30;99.90;;;;;;5036784;28;20431;-74
2022/04/27 07:11:05;;;;;;;23.47;18.77;;;13.30;99.90;;;;;;5032759;28;20180;-74
2022/04/27 07:13:30;;;;;;;22.43;18.73;;;13.30;99.90;;;;;;5030387;28;20204;-76
2022/04/27 07:16:00;;;;;;;24.13;18.17;;;13.30;99.90;;;;;;5037943;28;20213;-75
2022/04/27 07:18:30;;;;;;;22.77;19.20;;;13.30;99.90;;;;;;5029604;28;20550;-74
2022/04/27 07:20:56;;;;;;;22.33;17.33;;;13.20;99.90;;;;;;5027929;28;20443;-76
2022/04/27 07:23:22;;;;;;;30.20;19.07;;;13.10;99.90;;;;;;5026821;28;20513;-75
2022/04/27 07:25:48;;;;;;;23.77;17.77;;;13.10;99.90;;;;;;5035098;28;20457;-75
2022/04/27 07:28:13;;;;;;;26.07;19.67;;;13.00;99.90;;;;;;5032973;28;20186;-75
2022/04/27 07:30:39;;;;;;;23.77;18.43;;;13.10;99.90;;;;;;5032564;28;20180;-75
2022/04/27 07:33:05;;;;;;;28.87;22.50;;;13.20;99.90;;;;;;5029997;28;20200;-75
2022/04/27 07:35:30;;;;;;;21.73;16.97;;;13.40;99.90;;;;;;5035333;28;20180;-75
2022/04/27 07:37:56;;;;;;;23.73;18.57;;;13.40;99.90;;;;;;5029079;28;20184;-75
2022/04/27 07:40:22;;;;;;;24.57;17.70;;;13.50;99.90;;;;;;5031976;28;20246;-75
2022/04/27 07:42:48;;;;;;;21.27;17.47;;;13.70;99.90;;;;;;5034674;28;20215;-75
2022/04/27 07:45:15;;;;;;;19.97;16.60;;;13.90;99.90;;;;;;5028888;28;20191;-75
2022/04/27 07:47:41;;;;;;;21.73;17.80;;;14.00;99.90;;;;;;5032501;28;20438;-75
2022/04/27 07:50:15;;;;;;;20.00;15.73;;;14.10;99.90;;;;;;5026485;28;20443;-75
2022/04/27 07:52:42;;;;;;;22.60;16.80;;;14.00;99.90;;;;;;5030556;28;20457;-75
2022/04/27 07:55:09;;;;;;;19.63;15.83;;;13.90;99.90;;;;;;5029255;28;20433;-75
2022/04/27 07:57:35;;;;;;;23.03;16.63;;;13.80;99.90;;;;;;5031178;28;20433;-75
2022/04/27 08:00:04;;;;;;;18.17;16.20;;;14.00;99.90;;;;;;5026809;28;20461;-74
2022/04/27 08:02:29;;;;;;;22.30;16.17;;;13.90;99.90;;;;;;5026505;28;20575;-75
2022/04/27 08:04:55;;;;;;;21.03;16.87;;;13.90;99.90;;;;;;5045646;28;20490;-75
2022/04/27 08:07:21;;;;;;;23.43;15.60;;;13.80;99.90;;;;;;5029663;28;20730;-75
2022/04/27 08:09:46;;;;;;;20.43;16.00;;;13.80;99.90;;;;;;5029775;28;20193;-74
2022/04/27 08:12:12;;;;;;;20.47;15.30;;;13.90;99.90;;;;;;5030206;28;20585;-74
2022/04/27 08:14:38;;;;;;;18.60;14.57;;;14.10;99.90;;;;;;5030290;28;20662;-75
2022/04/27 08:17:04;;;;;;;19.73;15.53;;;14.40;99.90;;;;;;5028713;28;20187;-74
2022/04/27 08:19:30;;;;;;;18.70;15.50;;;14.50;99.90;;;;;;5028380;28;20670;-73
2022/04/27 08:21:55;;;;;;;15.60;12.33;;;14.80;99.90;;;;;;5028905;28;20499;-74
2022/04/27 08:24:22;;;;;;;16.23;11.70;;;14.70;99.90;;;;;;5029679;28;20306;-74
2022/04/27 08:26:51;;;;;;;14.33;11.70;;;14.60;99.90;;;;;;5050282;28;20187;-74
2022/04/27 08:29:17;;;;;;;12.43;11.13;;;14.60;99.90;;;;;;5027654;28;20446;-74
2022/04/27 08:31:43;;;;;;;10.80;9.00;;;14.60;99.90;;;;;;5025001;28;20470;-74
2022/04/27 08:34:09;;;;;;;12.87;10.40;;;14.70;99.90;;;;;;5031543;28;20184;-74
2022/04/27 08:36:34;;;;;;;10.63;9.30;;;14.80;99.90;;;;;;5045410;28;20560;-74
2022/04/27 08:39:01;;;;;;;13.00;10.23;;;14.90;99.90;;;;;;5033513;28;20192;-73
2022/04/27 08:41:28;;;;;;;13.73;10.00;;;14.80;99.90;;;;;;5031568;28;20206;-74
2022/04/27 08:43:54;;;;;;;10.17;9.00;;;15.00;99.90;;;;;;5029289;28;20785;-74
2022/04/27 08:46:20;;;;;;;11.20;8.73;;;15.30;99.90;;;;;;5029221;28;20758;-74
2022/04/27 08:48:47;;;;;;;10.33;9.30;;;15.10;99.90;;;;;;5034975;28;20423;-74
2022/04/27 08:51:13;;;;;;;11.00;9.00;;;15.40;99.90;;;;;;5035335;28;20433;-74
2022/04/27 08:53:41;;;;;;;8.63;7.73;;;15.60;99.90;;;;;;5031994;28;21153;-74
2022/04/27 08:56:06;;;;;;;9.63;8.70;;;15.70;99.90;;;;;;5050457;28;20198;-74
2022/04/27 08:58:32;;;;;;;10.30;9.00;;;15.60;99.90;;;;;;5033512;28;20430;-73
2022/04/27 09:00:59;;;;;;;9.23;8.00;;;15.60;99.90;;;;;;5035453;28;20267;-75
2022/04/27 09:03:36;;;;;;;9.73;8.77;;;15.70;99.90;;;;;;5037249;28;20345;-73
2022/04/27 09:06:06;;;;;;;8.27;7.37;;;15.80;99.90;;;;;;5034712;28;20437;-73
2022/04/27 09:08:55;;;;;;;9.20;7.50;;;15.80;99.90;;;;;;5034262;28;20474;-75
2022/04/27 09:11:26;;;;;;;9.00;6.77;;;15.80;99.90;;;;;;5032344;28;20462;-74
2022/04/27 09:14:00;;;;;;;9.37;7.90;;;15.90;99.90;;;;;;5030818;28;20435;-73
2022/04/27 09:22:11;;;;;;;7.80;6.90;;;16.10;99.90;;;;;;5035518;28;20543;-74
2022/04/27 09:24:54;;;;;;;8.00;7.20;;;16.30;99.90;;;;;;5050538;28;20445;-73
2022/04/27 09:27:21;;;;;;;8.87;7.10;;;16.40;99.90;;;;;;5050110;28;20443;-74
2022/04/27 09:30:11;;;;;;;10.23;6.50;;;16.50;99.90;;;;;;5031696;28;20433;-75
2022/04/27 09:32:37;;;;;;;7.03;6.33;;;16.50;99.90;;;;;;5039151;28;20468;-74
2022/04/27 09:35:03;;;;;;;7.63;6.33;;;16.50;99.90;;;;;;5033980;28;20469;-76
2022/04/27 09:37:37;;;;;;;6.43;5.63;;;16.60;99.90;;;;;;5030736;28;20497;-75
2022/04/27 09:40:08;;;;;;;7.33;5.87;;;16.50;99.90;;;;;;5033474;28;20424;-74
2022/04/27 09:42:41;;;;;;;5.87;5.27;;;16.60;99.90;;;;;;5034833;28;21346;-74
2022/04/27 09:45:23;;;;;;;9.50;8.50;;;16.40;99.90;;;;;;5035618;28;20440;-74
2022/04/27 09:48:00;;;;;;;6.67;6.07;;;16.40;99.90;;;;;;5035569;28;20443;-74
2022/04/27 09:50:35;;;;;;;9.23;8.10;;;16.20;99.90;;;;;;5032743;28;20445;-74
2022/04/27 09:53:00;;;;;;;5.97;5.27;;;16.20;99.90;;;;;;5033739;28;20938;-75
2022/04/27 09:55:26;;;;;;;4.60;4.20;;;16.30;99.90;;;;;;5036895;28;20453;-74
2022/04/27 09:57:58;;;;;;;5.33;4.00;;;16.40;99.90;;;;;;5033457;28;20686;-74
2022/04/27 10:00:25;;;;;;;4.53;3.93;;;16.40;99.90;;;;;;5033874;28;20476;-74
2022/04/27 10:02:52;;;;;;;5.20;3.83;;;16.50;99.90;;;;;;5035021;28;20502;-76
2022/04/27 10:05:20;;;;;;;5.13;4.63;;;16.50;99.90;;;;;;5032007;28;20862;-75
2022/04/27 10:07:47;;;;;;;5.87;4.80;;;16.50;99.90;;;;;;5029682;28;20485;-74
2022/04/27 10:10:16;;;;;;;6.20;4.83;;;16.50;99.90;;;;;;5032165;28;20469;-77
2022/04/27 10:12:42;;;;;;;5.57;4.70;;;16.40;99.90;;;;;;5037906;28;20822;-75
2022/04/27 10:15:08;;;;;;;4.73;4.00;;;16.50;99.90;;;;;;5041584;28;20803;-76
2022/04/27 10:17:34;;;;;;;5.03;4.53;;;16.60;99.90;;;;;;5030601;28;20452;-75
2022/04/27 10:20:00;;;;;;;5.80;4.70;;;16.60;99.90;;;;;;5043993;28;20438;-75
2022/04/27 10:22:32;;;;;;;8.40;3.90;;;16.70;99.90;;;;;;5034934;28;20465;-75
2022/04/27 10:25:06;;;;;;;4.90;4.50;;;16.70;99.90;;;;;;5028754;28;20172;-76
2022/04/27 10:27:37;;;;;;;4.33;3.80;;;16.80;99.90;;;;;;5032778;28;20430;-75
2022/04/27 10:30:08;;;;;;;5.63;4.63;;;16.90;99.90;;;;;;5032946;28;20434;-76
2022/04/27 10:32:37;;;;;;;6.00;4.90;;;17.00;99.90;;;;;;5036487;28;20446;-75
2022/04/27 10:35:27;;;;;;;5.63;4.40;;;17.10;99.90;;;;;;5034477;28;20431;-75
2022/04/27 10:37:54;;;;;;;7.10;4.73;;;17.30;99.90;;;;;;5031049;28;20546;-76
2022/04/27 10:40:34;;;;;;;6.53;5.23;;;17.20;99.90;;;;;;5031193;28;20442;-76
2022/04/27 10:43:09;;;;;;;5.10;4.60;;;17.20;99.90;;;;;;5034785;28;20687;-76
2022/04/27 10:45:45;;;;;;;6.17;5.10;;;17.20;99.90;;;;;;5031550;28;20426;-76
2022/04/27 10:48:17;;;;;;;4.83;4.37;;;17.30;99.90;;;;;;5030101;28;20880;-75
2022/04/27 10:51:00;;;;;;;5.17;4.67;;;17.20;99.90;;;;;;5024714;28;20450;-75
2022/04/27 10:53:28;;;;;;;4.97;4.40;;;17.40;99.90;;;;;;5037143;28;20446;-76
2022/04/27 10:56:03;;;;;;;5.70;5.10;;;17.50;99.90;;;;;;5033749;28;20643;-76
2022/04/27 10:58:31;;;;;;;5.40;4.90;;;17.60;99.90;;;;;;5048434;28;20439;-75
2022/04/27 11:01:03;;;;;;;5.30;4.80;;;17.70;99.90;;;;;;5037215;28;20905;-75
2022/04/27 11:03:35;;;;;;;6.43;5.70;;;17.80;99.90;;;;;;5037989;28;20467;-76
2022/04/27 11:06:11;;;;;;;10.27;6.20;;;17.80;99.90;;;;;;5032762;28;20430;-76
2022/04/27 11:08:59;;;;;;;6.20;5.43;;;18.20;99.90;;;;;;5035588;28;20974;-75
2022/04/27 11:11:26;;;;;;;5.33;4.83;;;18.40;99.90;;;;;;5036142;28;20429;-75
2022/04/27 11:14:02;;;;;;;5.23;4.40;;;18.70;99.90;;;;;;5032994;28;20486;-74
2022/04/27 11:16:28;;;;;;;5.77;5.00;;;18.70;99.90;;;;;;5033231;28;20429;-74
2022/04/27 11:18:56;;;;;;;5.20;4.70;;;18.60;99.90;;;;;;5033199;28;20438;-75
2022/04/27 11:21:24;;;;;;;9.07;5.67;;;18.70;99.90;;;;;;5031870;28;20184;-75
2022/04/27 11:23:51;;;;;;;6.03;5.43;;;18.80;99.90;;;;;;5034029;28;20860;-74
2022/04/27 11:26:16;;;;;;;5.50;5.00;;;18.90;99.90;;;;;;5031346;28;20465;-74
2022/04/27 11:28:43;;;;;;;5.77;4.63;;;19.20;99.90;;;;;;5033163;28;20461;-75
2022/04/27 11:31:09;;;;;;;4.83;4.40;;;19.00;99.90;;;;;;5027929;28;20542;-75
2022/04/27 11:33:41;;;;;;;4.37;3.93;;;19.30;99.90;;;;;;5033456;28;20450;-74
2022/04/27 11:36:19;;;;;;;4.80;4.40;;;19.60;99.90;;;;;;5037680;28;20432;-74
2022/04/27 11:38:45;;;;;;;5.17;4.60;;;19.80;99.90;;;;;;5029579;28;20435;-75
2022/04/27 11:41:15;;;;;;;5.03;4.50;;;19.90;99.90;;;;;;5032451;28;20485;-75
2022/04/27 11:43:41;;;;;;;4.80;4.40;;;20.00;99.90;;;;;;5030221;28;20224;-74
2022/04/27 11:46:10;;;;;;;4.67;4.27;;;19.90;99.90;;;;;;5032308;28;20457;-74
2022/04/27 11:48:36;;;;;;;5.00;4.17;;;19.90;99.90;;;;;;5026142;28;20312;-75
2022/04/27 11:51:03;;;;;;;6.10;4.50;;;19.80;99.90;;;;;;5033272;28;20443;-76
2022/04/27 11:53:29;;;;;;;7.80;4.80;;;19.90;99.90;;;;;;5029726;28;20457;-75
2022/04/27 11:55:55;;;;;;;4.80;4.40;;;20.30;99.90;;;;;;5035186;28;20439;-76
2022/04/27 11:58:26;;;;;;;5.53;5.03;;;20.80;99.90;;;;;;5030042;28;20442;-74
2022/04/27 12:00:56;;;;;;;5.97;4.27;;;20.60;99.90;;;;;;5030150;28;20531;-74
2022/04/27 12:03:23;;;;;;;4.90;4.50;;;20.70;99.90;;;;;;5029286;28;20473;-75
2022/04/27 12:05:51;;;;;;;5.10;4.07;;;21.80;99.90;;;;;;5031770;28;20576;-76
2022/04/27 12:08:26;;;;;;;4.33;3.93;;;23.30;99.90;;;;;;5046372;28;20993;-75
2022/04/27 12:10:52;;;;;;;4.40;4.00;;;25.30;98.50;;;;;;5028821;28;20426;-74
2022/04/27 12:13:20;;;;;;;4.07;3.67;;;26.90;92.80;;;;;;5032714;28;20465;-75
2022/04/27 12:15:56;;;;;;;5.47;3.93;;;27.90;86.90;;;;;;5035486;28;20512;-75
2022/04/27 12:18:27;;;;;;;4.20;3.80;;;29.20;73.90;;;;;;5030119;28;21639;-75
2022/04/27 12:20:57;;;;;;;4.20;3.90;;;28.70;68.80;;;;;;5033596;28;20446;-75
2022/04/27 12:23:43;;;;;;;3.80;3.50;;;27.30;67.60;;;;;;5034156;28;21085;-74
2022/04/27 12:26:09;;;;;;;4.40;4.00;;;27.50;67.30;;;;;;5031279;28;20557;-76
2022/04/27 12:28:47;;;;;;;4.17;3.77;;;28.40;65.50;;;;;;5031635;28;20434;-75
2022/04/27 12:31:16;;;;;;;4.23;3.83;;;29.50;61.60;;;;;;5025875;28;20180;-75
2022/04/27 12:33:50;;;;;;;4.43;4.03;;;29.20;59.50;;;;;;5033421;28;20458;-75
2022/04/27 12:39:23;;;;;;;4.20;3.47;;;30.90;54.40;;;;;;5024280;28;20454;-75
2022/04/27 12:41:50;;;;;;;4.43;4.03;;;28.30;55.10;;;;;;5029914;28;20453;-76
2022/04/27 12:44:35;;;;;;;6.43;3.80;;;27.00;55.90;;;;;;5031489;28;20933;-75
2022/04/27 12:47:08;;;;;;;4.13;3.83;;;27.70;56.80;;;;;;5030227;28;20480;-76
2022/04/27 12:49:45;;;;;;;4.50;4.10;;;28.40;58.50;;;;;;5029251;28;21112;-75
2022/04/27 12:52:23;;;;;;;5.43;3.93;;;28.60;55.10;;;;;;5026989;28;20466;-76
2022/04/27 12:54:52;;;;;;;3.80;3.50;;;28.60;55.30;;;;;;5028801;28;20448;-75